Wilmington, OH

6:37 PM EST on February 01, 2015 (GMT -0500)
Springfield-Beckley Municipal | Change Station
CLOSE
Current Station
Airport
Location: Springfield,
Elevation: 1050 ft
Nearby Weather Stations

Elev 1050 ft 39.84 °N, 83.84 °W | Updated 30 minutes ago

Overcast
Overcast
37 °F
Feels Like 29 °F
N
14
Wind Variable Wind from SSE

Today
High -- | Low -- °F
--% Chance of Precip.
Yesterday
High -- | Low -- °F
Precip. -- in
7:42 AM 5:55 PM
Waxing Gibbous, 96% visible
Pressure 29.60 in
Visibility 3.0 miles
Clouds Overcast 500 ft
Windchill 29 °F
Dew Point 37 °F
Humidity 100%
Rainfall 0.07 in
Snow Depth Not available.
UV 0 out of 12
Pollen .10 out of 12
Air Quality Not available.
Flu Activity Not available.
SPECI KSGH 012307Z AUTO 16012KT 3SM -RA BR OVC005 03/03 A2960 RMK AO2 CIG 002V009 P0001

More Conditions Fewer Conditions

Pressure 29.60 in
Visibility 3.0 miles
Clouds Overcast 500 ft
Windchill 29 °F
Dew Point 37 °F
Humidity 100%
Rainfall 0.07 in
Snow Depth Not available.
UV 0 out of 12
Pollen .10 out of 12
Air Quality Not available.
Flu Activity Not available.
SPECI KSGH 012307Z AUTO 16012KT 3SM -RA BR OVC005 03/03 A2960 RMK AO2 CIG 002V009 P0001

More Conditions Fewer Conditions

10-Day Weather Forecast

Almanac

Astronomy

Feb. 01, 2015 Rise Set
Actual Time
Civil Twilight
Nautical Twilight
Astronomical Twilight
Moon
Length of Visible Light
Length of Day
Tomorrow will be .
, % of the Moon is Illuminated

Today's Extremes

State Highs State Lows

Community

WunderPhotos

Upload Photos

1,792,609 photos uploaded!

WunderBlogs® & News

Nearby

Air Quality

  Air Quality AQ Index Pollutant
Not available.

Snow Depth

Station Depth Elevation

Earthquake Activity

City Distance Mag. Time & Date
Minimum magnitude displayed is 2.5.

Coastal Water Temperatures

Place Temperature

Nearby Weather Stations